sensor_id;sensor_type;location;lat;lon;timestamp;P1;durP1;ratioP1;P2;durP2;ratioP2
74963;SDS011;63521;51.900;4.748;2023-09-30T00:02:24;4.28;;;1.52;;
74963;SDS011;63521;51.900;4.748;2023-09-30T00:04:50;2.95;;;1.48;;
74963;SDS011;63521;51.900;4.748;2023-09-30T00:07:15;2.45;;;1.35;;
74963;SDS011;63521;51.900;4.748;2023-09-30T00:09:41;2.55;;;1.30;;
74963;SDS011;63521;51.900;4.748;2023-09-30T00:12:06;2.22;;;1.33;;
74963;SDS011;63521;51.900;4.748;2023-09-30T00:14:32;2.17;;;1.30;;
74963;SDS011;63521;51.900;4.748;2023-09-30T00:16:57;2.80;;;1.42;;
74963;SDS011;63521;51.900;4.748;2023-09-30T00:19:23;3.72;;;1.88;;
74963;SDS011;63521;51.900;4.748;2023-09-30T00:21:48;2.08;;;1.23;;
74963;SDS011;63521;51.900;4.748;2023-09-30T00:24:14;2.05;;;1.30;;
74963;SDS011;63521;51.900;4.748;2023-09-30T00:26:39;2.22;;;1.35;;
74963;SDS011;63521;51.900;4.748;2023-09-30T00:29:04;3.15;;;1.60;;
74963;SDS011;63521;51.900;4.748;2023-09-30T00:31:30;1.38;;;1.10;;
74963;SDS011;63521;51.900;4.748;2023-09-30T00:33:56;3.08;;;1.35;;
74963;SDS011;63521;51.900;4.748;2023-09-30T00:36:22;2.58;;;1.27;;
74963;SDS011;63521;51.900;4.748;2023-09-30T00:38:47;2.22;;;1.55;;
74963;SDS011;63521;51.900;4.748;2023-09-30T00:41:12;2.10;;;1.25;;
74963;SDS011;63521;51.900;4.748;2023-09-30T00:43:39;2.00;;;1.30;;
74963;SDS011;63521;51.900;4.748;2023-09-30T00:46:06;3.72;;;1.80;;
74963;SDS011;63521;51.900;4.748;2023-09-30T00:48:36;2.05;;;1.20;;
74963;SDS011;63521;51.900;4.748;2023-09-30T00:51:02;2.78;;;1.48;;
74963;SDS011;63521;51.900;4.748;2023-09-30T00:53:28;2.67;;;1.50;;
74963;SDS011;63521;51.900;4.748;2023-09-30T00:55:53;3.50;;;1.50;;
74963;SDS011;63521;51.900;4.748;2023-09-30T00:58:24;2.50;;;1.40;;
74963;SDS011;63521;51.900;4.748;2023-09-30T01:00:52;2.85;;;1.70;;
74963;SDS011;63521;51.900;4.748;2023-09-30T01:03:18;1.38;;;1.20;;
74963;SDS011;63521;51.900;4.748;2023-09-30T01:05:44;3.10;;;1.55;;
74963;SDS011;63521;51.900;4.748;2023-09-30T01:08:10;2.42;;;1.40;;
74963;SDS011;63521;51.900;4.748;2023-09-30T01:10:35;2.85;;;1.60;;
74963;SDS011;63521;51.900;4.748;2023-09-30T01:13:01;2.50;;;1.40;;
74963;SDS011;63521;51.900;4.748;2023-09-30T01:15:28;3.03;;;1.30;;
74963;SDS011;63521;51.900;4.748;2023-09-30T01:17:54;2.15;;;1.30;;
74963;SDS011;63521;51.900;4.748;2023-09-30T01:20:19;2.78;;;1.48;;
74963;SDS011;63521;51.900;4.748;2023-09-30T01:22:47;2.97;;;1.60;;
74963;SDS011;63521;51.900;4.748;2023-09-30T01:25:12;2.47;;;1.50;;
74963;SDS011;63521;51.900;4.748;2023-09-30T01:27:38;1.92;;;1.25;;
74963;SDS011;63521;51.900;4.748;2023-09-30T01:30:03;2.65;;;1.45;;
74963;SDS011;63521;51.900;4.748;2023-09-30T01:32:29;3.75;;;1.40;;
74963;SDS011;63521;51.900;4.748;2023-09-30T01:34:55;2.90;;;1.60;;
74963;SDS011;63521;51.900;4.748;2023-09-30T01:37:20;2.58;;;1.40;;
74963;SDS011;63521;51.900;4.748;2023-09-30T01:39:46;3.53;;;1.60;;
74963;SDS011;63521;51.900;4.748;2023-09-30T01:42:11;2.08;;;1.40;;
74963;SDS011;63521;51.900;4.748;2023-09-30T01:44:36;2.60;;;1.52;;
74963;SDS011;63521;51.900;4.748;2023-09-30T01:47:02;2.63;;;1.40;;
74963;SDS011;63521;51.900;4.748;2023-09-30T01:49:27;2.67;;;1.23;;
74963;SDS011;63521;51.900;4.748;2023-09-30T01:51:53;2.58;;;1.50;;
74963;SDS011;63521;51.900;4.748;2023-09-30T01:54:18;1.73;;;1.20;;
74963;SDS011;63521;51.900;4.748;2023-09-30T01:56:44;2.15;;;1.40;;
74963;SDS011;63521;51.900;4.748;2023-09-30T01:59:09;1.88;;;1.40;;
74963;SDS011;63521;51.900;4.748;2023-09-30T02:01:34;3.33;;;1.45;;
74963;SDS011;63521;51.900;4.748;2023-09-30T02:04:00;2.60;;;1.50;;
74963;SDS011;63521;51.900;4.748;2023-09-30T02:06:25;3.40;;;1.65;;
74963;SDS011;63521;51.900;4.748;2023-09-30T02:08:50;2.05;;;1.42;;
74963;SDS011;63521;51.900;4.748;2023-09-30T02:11:16;3.03;;;1.60;;
74963;SDS011;63521;51.900;4.748;2023-09-30T02:13:42;3.45;;;1.83;;
74963;SDS011;63521;51.900;4.748;2023-09-30T02:16:12;3.40;;;1.65;;
74963;SDS011;63521;51.900;4.748;2023-09-30T02:18:38;3.22;;;1.70;;
74963;SDS011;63521;51.900;4.748;2023-09-30T02:21:05;2.03;;;1.30;;
74963;SDS011;63521;51.900;4.748;2023-09-30T02:23:32;1.85;;;1.33;;
74963;SDS011;63521;51.900;4.748;2023-09-30T02:25:58;2.17;;;1.33;;
74963;SDS011;63521;51.900;4.748;2023-09-30T02:28:23;1.80;;;1.30;;
74963;SDS011;63521;51.900;4.748;2023-09-30T02:30:49;1.88;;;1.30;;
74963;SDS011;63521;51.900;4.748;2023-09-30T02:33:14;1.48;;;1.20;;
74963;SDS011;63521;51.900;4.748;2023-09-30T02:35:43;1.50;;;1.40;;
74963;SDS011;63521;51.900;4.748;2023-09-30T02:38:10;2.65;;;1.30;;
74963;SDS011;63521;51.900;4.748;2023-09-30T02:40:36;1.23;;;1.10;;
74963;SDS011;63521;51.900;4.748;2023-09-30T02:43:03;2.20;;;1.40;;
74963;SDS011;63521;51.900;4.748;2023-09-30T02:45:29;2.72;;;1.50;;
74963;SDS011;63521;51.900;4.748;2023-09-30T02:47:54;2.42;;;1.25;;
74963;SDS011;63521;51.900;4.748;2023-09-30T02:50:20;2.20;;;1.33;;
74963;SDS011;63521;51.900;4.748;2023-09-30T02:52:46;1.67;;;1.30;;
74963;SDS011;63521;51.900;4.748;2023-09-30T02:55:12;1.98;;;1.30;;
74963;SDS011;63521;51.900;4.748;2023-09-30T02:57:37;2.83;;;1.40;;
74963;SDS011;63521;51.900;4.748;2023-09-30T03:00:03;2.25;;;1.60;;
74963;SDS011;63521;51.900;4.748;2023-09-30T03:02:49;2.55;;;1.50;;
74963;SDS011;63521;51.900;4.748;2023-09-30T03:05:17;2.47;;;1.55;;
74963;SDS011;63521;51.900;4.748;2023-09-30T03:07:43;2.28;;;1.55;;
74963;SDS011;63521;51.900;4.748;2023-09-30T03:10:09;2.30;;;1.27;;
74963;SDS011;63521;51.900;4.748;2023-09-30T03:12:35;1.73;;;1.15;;
74963;SDS011;63521;51.900;4.748;2023-09-30T03:15:00;2.70;;;1.33;;
74963;SDS011;63521;51.900;4.748;2023-09-30T03:17:30;2.65;;;1.20;;
74963;SDS011;63521;51.900;4.748;2023-09-30T03:19:57;1.90;;;1.52;;
74963;SDS011;63521;51.900;4.748;2023-09-30T03:22:22;2.85;;;1.55;;
74963;SDS011;63521;51.900;4.748;2023-09-30T03:24:48;2.17;;;1.30;;
74963;SDS011;63521;51.900;4.748;2023-09-30T03:27:13;2.75;;;1.55;;
74963;SDS011;63521;51.900;4.748;2023-09-30T03:29:40;2.03;;;1.35;;
74963;SDS011;63521;51.900;4.748;2023-09-30T03:32:06;1.90;;;1.05;;
74963;SDS011;63521;51.900;4.748;2023-09-30T03:34:32;2.22;;;1.30;;
74963;SDS011;63521;51.900;4.748;2023-09-30T03:37:01;1.63;;;1.10;;
74963;SDS011;63521;51.900;4.748;2023-09-30T03:39:27;2.85;;;1.17;;
74963;SDS011;63521;51.900;4.748;2023-09-30T03:41:56;2.50;;;1.42;;
74963;SDS011;63521;51.900;4.748;2023-09-30T03:44:22;1.90;;;1.27;;
74963;SDS011;63521;51.900;4.748;2023-09-30T03:46:48;1.92;;;1.30;;
74963;SDS011;63521;51.900;4.748;2023-09-30T03:49:15;2.58;;;1.30;;
74963;SDS011;63521;51.900;4.748;2023-09-30T03:51:42;1.92;;;1.42;;
74963;SDS011;63521;51.900;4.748;2023-09-30T03:54:07;2.25;;;1.20;;
74963;SDS011;63521;51.900;4.748;2023-09-30T03:56:33;2.15;;;1.17;;
74963;SDS011;63521;51.900;4.748;2023-09-30T03:58:59;1.45;;;1.23;;
74963;SDS011;63521;51.900;4.748;2023-09-30T04:01:25;2.65;;;1.40;;
74963;SDS011;63521;51.900;4.748;2023-09-30T04:03:51;2.47;;;1.40;;
74963;SDS011;63521;51.900;4.748;2023-09-30T04:06:20;1.52;;;1.27;;
74963;SDS011;63521;51.900;4.748;2023-09-30T04:08:45;2.10;;;1.30;;
74963;SDS011;63521;51.900;4.748;2023-09-30T04:11:11;1.88;;;1.25;;
74963;SDS011;63521;51.900;4.748;2023-09-30T04:16:07;2.97;;;1.40;;
74963;SDS011;63521;51.900;4.748;2023-09-30T04:18:32;2.33;;;1.20;;
74963;SDS011;63521;51.900;4.748;2023-09-30T04:20:58;1.92;;;1.25;;
74963;SDS011;63521;51.900;4.748;2023-09-30T04:23:24;3.08;;;1.45;;
74963;SDS011;63521;51.900;4.748;2023-09-30T04:25:50;1.38;;;1.20;;
74963;SDS011;63521;51.900;4.748;2023-09-30T04:28:15;2.88;;;1.52;;
74963;SDS011;63521;51.900;4.748;2023-09-30T04:30:46;3.38;;;1.42;;
74963;SDS011;63521;51.900;4.748;2023-09-30T04:33:12;4.15;;;1.50;;
74963;SDS011;63521;51.900;4.748;2023-09-30T04:35:38;1.92;;;1.30;;
74963;SDS011;63521;51.900;4.748;2023-09-30T04:38:03;1.50;;;1.23;;
74963;SDS011;63521;51.900;4.748;2023-09-30T04:40:30;2.65;;;1.40;;
74963;SDS011;63521;51.900;4.748;2023-09-30T04:42:56;1.73;;;1.30;;
74963;SDS011;63521;51.900;4.748;2023-09-30T04:45:27;2.85;;;1.55;;
74963;SDS011;63521;51.900;4.748;2023-09-30T04:47:53;3.65;;;1.42;;
74963;SDS011;63521;51.900;4.748;2023-09-30T04:50:18;6.22;;;1.27;;
74963;SDS011;63521;51.900;4.748;2023-09-30T04:52:46;2.22;;;1.52;;
74963;SDS011;63521;51.900;4.748;2023-09-30T04:55:12;1.67;;;1.15;;
74963;SDS011;63521;51.900;4.748;2023-09-30T04:57:40;3.35;;;1.58;;
74963;SDS011;63521;51.900;4.748;2023-09-30T05:00:07;2.75;;;1.48;;
74963;SDS011;63521;51.900;4.748;2023-09-30T05:02:36;2.03;;;1.27;;
74963;SDS011;63521;51.900;4.748;2023-09-30T05:05:02;3.00;;;1.50;;
74963;SDS011;63521;51.900;4.748;2023-09-30T05:07:31;1.63;;;1.10;;
74963;SDS011;63521;51.900;4.748;2023-09-30T05:09:57;2.10;;;1.63;;
74963;SDS011;63521;51.900;4.748;2023-09-30T05:12:22;2.05;;;1.52;;
74963;SDS011;63521;51.900;4.748;2023-09-30T05:14:48;2.20;;;1.35;;
74963;SDS011;63521;51.900;4.748;2023-09-30T05:17:13;3.25;;;1.52;;
74963;SDS011;63521;51.900;4.748;2023-09-30T05:19:39;3.53;;;1.60;;
74963;SDS011;63521;51.900;4.748;2023-09-30T05:22:04;2.80;;;1.65;;
74963;SDS011;63521;51.900;4.748;2023-09-30T05:24:30;2.85;;;1.35;;
74963;SDS011;63521;51.900;4.748;2023-09-30T05:26:56;2.08;;;1.55;;
74963;SDS011;63521;51.900;4.748;2023-09-30T05:29:21;1.73;;;1.13;;
74963;SDS011;63521;51.900;4.748;2023-09-30T05:31:47;1.77;;;1.30;;
74963;SDS011;63521;51.900;4.748;2023-09-30T05:34:13;1.92;;;1.30;;
74963;SDS011;63521;51.900;4.748;2023-09-30T05:36:38;7.03;;;3.83;;
74963;SDS011;63521;51.900;4.748;2023-09-30T05:39:04;6.70;;;2.70;;
74963;SDS011;63521;51.900;4.748;2023-09-30T05:41:30;3.03;;;1.45;;
74963;SDS011;63521;51.900;4.748;2023-09-30T05:44:13;2.15;;;1.30;;
74963;SDS011;63521;51.900;4.748;2023-09-30T05:46:42;2.22;;;1.45;;
74963;SDS011;63521;51.900;4.748;2023-09-30T05:49:08;2.13;;;1.40;;
74963;SDS011;63521;51.900;4.748;2023-09-30T05:54:06;3.13;;;1.65;;
74963;SDS011;63521;51.900;4.748;2023-09-30T05:56:34;2.28;;;1.40;;
74963;SDS011;63521;51.900;4.748;2023-09-30T05:59:00;1.95;;;1.40;;
74963;SDS011;63521;51.900;4.748;2023-09-30T06:01:26;3.47;;;1.40;;
74963;SDS011;63521;51.900;4.748;2023-09-30T06:03:52;3.70;;;1.70;;
74963;SDS011;63521;51.900;4.748;2023-09-30T06:06:18;3.00;;;1.40;;
74963;SDS011;63521;51.900;4.748;2023-09-30T06:08:44;3.42;;;1.50;;
74963;SDS011;63521;51.900;4.748;2023-09-30T06:11:20;4.50;;;1.60;;
74963;SDS011;63521;51.900;4.748;2023-09-30T06:13:49;4.10;;;2.35;;
74963;SDS011;63521;51.900;4.748;2023-09-30T06:16:15;3.35;;;1.75;;
74963;SDS011;63521;51.900;4.748;2023-09-30T06:18:41;2.15;;;1.45;;
74963;SDS011;63521;51.900;4.748;2023-09-30T06:21:06;2.13;;;1.50;;
74963;SDS011;63521;51.900;4.748;2023-09-30T06:23:32;2.00;;;1.48;;
74963;SDS011;63521;51.900;4.748;2023-09-30T06:25:59;3.47;;;1.65;;
74963;SDS011;63521;51.900;4.748;2023-09-30T06:28:26;2.45;;;1.50;;
74963;SDS011;63521;51.900;4.748;2023-09-30T06:30:53;2.20;;;1.30;;
74963;SDS011;63521;51.900;4.748;2023-09-30T06:33:18;3.70;;;1.60;;
74963;SDS011;63521;51.900;4.748;2023-09-30T06:35:45;2.92;;;1.50;;
74963;SDS011;63521;51.900;4.748;2023-09-30T06:38:16;2.78;;;1.42;;
74963;SDS011;63521;51.900;4.748;2023-09-30T06:40:44;3.08;;;1.40;;
74963;SDS011;63521;51.900;4.748;2023-09-30T06:43:12;3.85;;;1.52;;
74963;SDS011;63521;51.900;4.748;2023-09-30T06:45:43;4.22;;;1.45;;
74963;SDS011;63521;51.900;4.748;2023-09-30T06:48:10;4.95;;;1.60;;
74963;SDS011;63521;51.900;4.748;2023-09-30T06:50:47;2.63;;;1.52;;
74963;SDS011;63521;51.900;4.748;2023-09-30T06:53:14;3.92;;;1.45;;
74963;SDS011;63521;51.900;4.748;2023-09-30T06:55:41;5.90;;;1.90;;
74963;SDS011;63521;51.900;4.748;2023-09-30T06:58:07;2.50;;;1.65;;
74963;SDS011;63521;51.900;4.748;2023-09-30T07:00:33;2.45;;;1.40;;
74963;SDS011;63521;51.900;4.748;2023-09-30T07:03:02;2.58;;;1.60;;
74963;SDS011;63521;51.900;4.748;2023-09-30T07:05:27;2.85;;;1.25;;
74963;SDS011;63521;51.900;4.748;2023-09-30T07:07:54;1.98;;;1.50;;
74963;SDS011;63521;51.900;4.748;2023-09-30T07:10:19;2.90;;;1.60;;
74963;SDS011;63521;51.900;4.748;2023-09-30T07:12:44;2.95;;;1.65;;
74963;SDS011;63521;51.900;4.748;2023-09-30T07:15:10;2.97;;;1.40;;
74963;SDS011;63521;51.900;4.748;2023-09-30T07:17:35;2.55;;;1.48;;
74963;SDS011;63521;51.900;4.748;2023-09-30T07:20:02;1.90;;;1.45;;
74963;SDS011;63521;51.900;4.748;2023-09-30T07:22:27;3.65;;;1.60;;
74963;SDS011;63521;51.900;4.748;2023-09-30T07:24:53;2.70;;;1.50;;
74963;SDS011;63521;51.900;4.748;2023-09-30T07:27:18;4.25;;;1.63;;
74963;SDS011;63521;51.900;4.748;2023-09-30T07:29:44;3.63;;;1.50;;
74963;SDS011;63521;51.900;4.748;2023-09-30T07:32:09;4.07;;;1.58;;
74963;SDS011;63521;51.900;4.748;2023-09-30T07:34:35;5.32;;;1.73;;
74963;SDS011;63521;51.900;4.748;2023-09-30T07:37:00;3.00;;;1.98;;
74963;SDS011;63521;51.900;4.748;2023-09-30T07:39:26;2.53;;;1.50;;
74963;SDS011;63521;51.900;4.748;2023-09-30T07:41:51;3.88;;;1.83;;
74963;SDS011;63521;51.900;4.748;2023-09-30T07:44:16;2.80;;;1.70;;
74963;SDS011;63521;51.900;4.748;2023-09-30T07:46:42;3.72;;;1.58;;
74963;SDS011;63521;51.900;4.748;2023-09-30T07:49:08;3.15;;;1.58;;
74963;SDS011;63521;51.900;4.748;2023-09-30T07:51:35;2.35;;;1.70;;
74963;SDS011;63521;51.900;4.748;2023-09-30T07:54:00;3.63;;;1.80;;
74963;SDS011;63521;51.900;4.748;2023-09-30T07:56:26;2.50;;;1.70;;
74963;SDS011;63521;51.900;4.748;2023-09-30T07:58:51;4.20;;;1.83;;
74963;SDS011;63521;51.900;4.748;2023-09-30T08:01:17;3.33;;;1.75;;
74963;SDS011;63521;51.900;4.748;2023-09-30T08:03:43;3.10;;;1.60;;
74963;SDS011;63521;51.900;4.748;2023-09-30T08:06:08;4.45;;;1.85;;
74963;SDS011;63521;51.900;4.748;2023-09-30T08:08:34;3.60;;;1.70;;
74963;SDS011;63521;51.900;4.748;2023-09-30T08:11:00;4.57;;;2.13;;
74963;SDS011;63521;51.900;4.748;2023-09-30T08:13:25;4.57;;;1.70;;
74963;SDS011;63521;51.900;4.748;2023-09-30T08:15:51;4.20;;;1.85;;
74963;SDS011;63521;51.900;4.748;2023-09-30T08:18:18;6.28;;;2.20;;
74963;SDS011;63521;51.900;4.748;2023-09-30T08:20:44;4.82;;;1.70;;
74963;SDS011;63521;51.900;4.748;2023-09-30T08:23:09;3.42;;;1.85;;
74963;SDS011;63521;51.900;4.748;2023-09-30T08:25:36;4.18;;;1.65;;
74963;SDS011;63521;51.900;4.748;2023-09-30T08:28:05;4.80;;;1.95;;
74963;SDS011;63521;51.900;4.748;2023-09-30T08:30:30;6.88;;;3.03;;
74963;SDS011;63521;51.900;4.748;2023-09-30T08:32:58;9.20;;;3.92;;
74963;SDS011;63521;51.900;4.748;2023-09-30T08:35:24;10.48;;;4.18;;
74963;SDS011;63521;51.900;4.748;2023-09-30T08:37:49;5.28;;;2.53;;
74963;SDS011;63521;51.900;4.748;2023-09-30T08:40:18;6.05;;;2.50;;
74963;SDS011;63521;51.900;4.748;2023-09-30T08:42:45;6.97;;;2.58;;
74963;SDS011;63521;51.900;4.748;2023-09-30T08:45:16;5.55;;;2.55;;
74963;SDS011;63521;51.900;4.748;2023-09-30T08:47:42;4.95;;;2.22;;
74963;SDS011;63521;51.900;4.748;2023-09-30T08:50:07;6.97;;;2.30;;
74963;SDS011;63521;51.900;4.748;2023-09-30T08:52:35;4.57;;;2.22;;
74963;SDS011;63521;51.900;4.748;2023-09-30T08:55:01;5.53;;;2.42;;
74963;SDS011;63521;51.900;4.748;2023-09-30T08:57:26;10.07;;;2.05;;
74963;SDS011;63521;51.900;4.748;2023-09-30T08:59:53;6.63;;;2.13;;
74963;SDS011;63521;51.900;4.748;2023-09-30T09:02:18;5.05;;;2.60;;
74963;SDS011;63521;51.900;4.748;2023-09-30T09:04:44;6.57;;;2.20;;
74963;SDS011;63521;51.900;4.748;2023-09-30T09:07:10;5.20;;;2.22;;
74963;SDS011;63521;51.900;4.748;2023-09-30T09:09:36;4.53;;;2.20;;
74963;SDS011;63521;51.900;4.748;2023-09-30T09:12:02;4.28;;;2.28;;
74963;SDS011;63521;51.900;4.748;2023-09-30T09:14:37;4.93;;;2.05;;
74963;SDS011;63521;51.900;4.748;2023-09-30T09:17:07;4.72;;;2.10;;
74963;SDS011;63521;51.900;4.748;2023-09-30T09:19:33;3.97;;;2.03;;
74963;SDS011;63521;51.900;4.748;2023-09-30T09:21:59;6.57;;;2.30;;
74963;SDS011;63521;51.900;4.748;2023-09-30T09:24:27;4.88;;;2.13;;
74963;SDS011;63521;51.900;4.748;2023-09-30T09:27:05;5.03;;;2.28;;
74963;SDS011;63521;51.900;4.748;2023-09-30T09:29:31;6.32;;;2.13;;
74963;SDS011;63521;51.900;4.748;2023-09-30T09:32:13;4.70;;;2.50;;
74963;SDS011;63521;51.900;4.748;2023-09-30T09:34:42;4.72;;;2.53;;
74963;SDS011;63521;51.900;4.748;2023-09-30T09:37:15;5.15;;;2.00;;
74963;SDS011;63521;51.900;4.748;2023-09-30T09:39:53;4.38;;;2.20;;
74963;SDS011;63521;51.900;4.748;2023-09-30T09:45:10;5.60;;;2.15;;
74963;SDS011;63521;51.900;4.748;2023-09-30T09:47:36;4.50;;;2.28;;
74963;SDS011;63521;51.900;4.748;2023-09-30T09:50:02;6.13;;;3.22;;
74963;SDS011;63521;51.900;4.748;2023-09-30T09:52:28;8.60;;;3.85;;
74963;SDS011;63521;51.900;4.748;2023-09-30T09:54:55;8.88;;;4.07;;
74963;SDS011;63521;51.900;4.748;2023-09-30T09:57:20;9.95;;;4.13;;
74963;SDS011;63521;51.900;4.748;2023-09-30T09:59:46;7.05;;;3.90;;
74963;SDS011;63521;51.900;4.748;2023-09-30T10:02:13;8.00;;;3.63;;
74963;SDS011;63521;51.900;4.748;2023-09-30T10:04:42;10.18;;;4.05;;
74963;SDS011;63521;51.900;4.748;2023-09-30T10:07:12;11.18;;;4.32;;
74963;SDS011;63521;51.900;4.748;2023-09-30T10:09:41;9.07;;;3.53;;
74963;SDS011;63521;51.900;4.748;2023-09-30T10:12:10;9.00;;;3.50;;
74963;SDS011;63521;51.900;4.748;2023-09-30T10:14:36;8.57;;;3.95;;
74963;SDS011;63521;51.900;4.748;2023-09-30T10:17:02;8.93;;;3.38;;
74963;SDS011;63521;51.900;4.748;2023-09-30T10:19:28;5.90;;;2.92;;
74963;SDS011;63521;51.900;4.748;2023-09-30T10:24:51;6.70;;;2.75;;
74963;SDS011;63521;51.900;4.748;2023-09-30T10:29:46;8.68;;;3.13;;
74963;SDS011;63521;51.900;4.748;2023-09-30T10:32:12;5.35;;;2.55;;
74963;SDS011;63521;51.900;4.748;2023-09-30T10:34:38;5.22;;;2.40;;
74963;SDS011;63521;51.900;4.748;2023-09-30T10:37:20;7.47;;;2.80;;
74963;SDS011;63521;51.900;4.748;2023-09-30T10:39:56;6.93;;;2.40;;
74963;SDS011;63521;51.900;4.748;2023-09-30T10:50:56;6.55;;;2.38;;
74963;SDS011;63521;51.900;4.748;2023-09-30T10:53:26;6.35;;;2.05;;
74963;SDS011;63521;51.900;4.748;2023-09-30T10:55:58;7.15;;;2.53;;
74963;SDS011;63521;51.900;4.748;2023-09-30T11:01:09;5.63;;;2.00;;
74963;SDS011;63521;51.900;4.748;2023-09-30T11:03:34;11.88;;;2.33;;
74963;SDS011;63521;51.900;4.748;2023-09-30T11:06:00;5.35;;;2.03;;
74963;SDS011;63521;51.900;4.748;2023-09-30T11:08:26;7.55;;;2.20;;
74963;SDS011;63521;51.900;4.748;2023-09-30T11:10:54;7.30;;;2.38;;
74963;SDS011;63521;51.900;4.748;2023-09-30T11:13:20;6.07;;;2.00;;
74963;SDS011;63521;51.900;4.748;2023-09-30T11:15:45;8.45;;;2.40;;
74963;SDS011;63521;51.900;4.748;2023-09-30T11:18:15;8.93;;;2.38;;
74963;SDS011;63521;51.900;4.748;2023-09-30T11:20:44;8.13;;;2.15;;
74963;SDS011;63521;51.900;4.748;2023-09-30T11:23:10;9.30;;;2.20;;
74963;SDS011;63521;51.900;4.748;2023-09-30T11:25:39;6.88;;;1.70;;
74963;SDS011;63521;51.900;4.748;2023-09-30T11:28:16;5.93;;;1.83;;
74963;SDS011;63521;51.900;4.748;2023-09-30T11:30:57;5.53;;;1.88;;
74963;SDS011;63521;51.900;4.748;2023-09-30T11:33:24;8.15;;;2.00;;
74963;SDS011;63521;51.900;4.748;2023-09-30T11:38:29;4.40;;;1.70;;
74963;SDS011;63521;51.900;4.748;2023-09-30T11:43:31;3.15;;;2.00;;
74963;SDS011;63521;51.900;4.748;2023-09-30T11:46:31;10.07;;;2.50;;
74963;SDS011;63521;51.900;4.748;2023-09-30T11:48:56;4.53;;;1.70;;
74963;SDS011;63521;51.900;4.748;2023-09-30T11:51:24;5.20;;;2.20;;
74963;SDS011;63521;51.900;4.748;2023-09-30T11:53:51;4.07;;;1.80;;
74963;SDS011;63521;51.900;4.748;2023-09-30T11:56:18;5.22;;;2.15;;
74963;SDS011;63521;51.900;4.748;2023-09-30T11:58:44;3.88;;;1.50;;
74963;SDS011;63521;51.900;4.748;2023-09-30T12:01:11;2.83;;;1.42;;
74963;SDS011;63521;51.900;4.748;2023-09-30T12:03:39;2.90;;;1.42;;
74963;SDS011;63521;51.900;4.748;2023-09-30T12:06:08;4.47;;;2.20;;
74963;SDS011;63521;51.900;4.748;2023-09-30T12:08:33;5.15;;;1.80;;
74963;SDS011;63521;51.900;4.748;2023-09-30T12:10:58;3.67;;;1.60;;
74963;SDS011;63521;51.900;4.748;2023-09-30T12:13:24;4.47;;;1.65;;
74963;SDS011;63521;51.900;4.748;2023-09-30T12:15:50;3.88;;;1.95;;
74963;SDS011;63521;51.900;4.748;2023-09-30T12:18:18;5.30;;;1.50;;
74963;SDS011;63521;51.900;4.748;2023-09-30T12:20:48;4.53;;;1.70;;
74963;SDS011;63521;51.900;4.748;2023-09-30T12:23:19;4.20;;;1.95;;
74963;SDS011;63521;51.900;4.748;2023-09-30T12:25:45;4.38;;;1.63;;
74963;SDS011;63521;51.900;4.748;2023-09-30T12:28:12;5.15;;;1.90;;
74963;SDS011;63521;51.900;4.748;2023-09-30T12:30:39;3.00;;;1.63;;
74963;SDS011;63521;51.900;4.748;2023-09-30T12:33:05;4.47;;;1.88;;
74963;SDS011;63521;51.900;4.748;2023-09-30T12:35:31;2.88;;;1.33;;
74963;SDS011;63521;51.900;4.748;2023-09-30T12:37:57;3.63;;;1.38;;
74963;SDS011;63521;51.900;4.748;2023-09-30T12:40:23;2.72;;;1.63;;
74963;SDS011;63521;51.900;4.748;2023-09-30T12:42:48;3.05;;;1.50;;
74963;SDS011;63521;51.900;4.748;2023-09-30T12:45:14;3.25;;;1.40;;
74963;SDS011;63521;51.900;4.748;2023-09-30T12:47:39;3.20;;;1.45;;
74963;SDS011;63521;51.900;4.748;2023-09-30T12:50:04;3.72;;;1.63;;
74963;SDS011;63521;51.900;4.748;2023-09-30T12:52:34;4.10;;;1.40;;
74963;SDS011;63521;51.900;4.748;2023-09-30T12:55:00;3.35;;;1.55;;
74963;SDS011;63521;51.900;4.748;2023-09-30T12:57:25;3.15;;;1.55;;
74963;SDS011;63521;51.900;4.748;2023-09-30T12:59:50;3.63;;;1.50;;
74963;SDS011;63521;51.900;4.748;2023-09-30T13:02:16;2.83;;;1.58;;
74963;SDS011;63521;51.900;4.748;2023-09-30T13:04:43;3.67;;;2.00;;
74963;SDS011;63521;51.900;4.748;2023-09-30T13:07:09;5.10;;;1.98;;
74963;SDS011;63521;51.900;4.748;2023-09-30T13:09:35;4.38;;;1.58;;
74963;SDS011;63521;51.900;4.748;2023-09-30T13:12:02;4.35;;;1.90;;
74963;SDS011;63521;51.900;4.748;2023-09-30T13:14:28;2.65;;;1.48;;
74963;SDS011;63521;51.900;4.748;2023-09-30T13:16:53;3.90;;;1.55;;
74963;SDS011;63521;51.900;4.748;2023-09-30T13:19:19;3.28;;;1.65;;
74963;SDS011;63521;51.900;4.748;2023-09-30T13:21:46;4.18;;;1.55;;
74963;SDS011;63521;51.900;4.748;2023-09-30T13:24:13;4.35;;;1.60;;
74963;SDS011;63521;51.900;4.748;2023-09-30T13:26:39;3.05;;;1.20;;
74963;SDS011;63521;51.900;4.748;2023-09-30T13:29:04;2.10;;;1.40;;
74963;SDS011;63521;51.900;4.748;2023-09-30T13:31:35;3.30;;;1.60;;
74963;SDS011;63521;51.900;4.748;2023-09-30T13:34:04;2.67;;;1.70;;
74963;SDS011;63521;51.900;4.748;2023-09-30T13:36:30;3.42;;;1.52;;
74963;SDS011;63521;51.900;4.748;2023-09-30T13:38:55;6.25;;;1.73;;
74963;SDS011;63521;51.900;4.748;2023-09-30T13:41:21;2.78;;;1.50;;
74963;SDS011;63521;51.900;4.748;2023-09-30T13:43:46;2.65;;;1.42;;
74963;SDS011;63521;51.900;4.748;2023-09-30T13:46:11;3.92;;;2.00;;
74963;SDS011;63521;51.900;4.748;2023-09-30T13:48:37;3.50;;;2.08;;
74963;SDS011;63521;51.900;4.748;2023-09-30T13:51:04;2.22;;;1.40;;
74963;SDS011;63521;51.900;4.748;2023-09-30T13:53:32;2.80;;;1.30;;
74963;SDS011;63521;51.900;4.748;2023-09-30T13:55:58;3.17;;;1.75;;
74963;SDS011;63521;51.900;4.748;2023-09-30T13:58:23;2.60;;;1.58;;
74963;SDS011;63521;51.900;4.748;2023-09-30T14:00:49;5.88;;;1.80;;
74963;SDS011;63521;51.900;4.748;2023-09-30T14:03:17;5.05;;;1.92;;
74963;SDS011;63521;51.900;4.748;2023-09-30T14:05:44;3.63;;;1.63;;
74963;SDS011;63521;51.900;4.748;2023-09-30T14:08:10;3.58;;;1.67;;
74963;SDS011;63521;51.900;4.748;2023-09-30T14:10:36;4.22;;;1.77;;
74963;SDS011;63521;51.900;4.748;2023-09-30T14:13:01;5.20;;;2.10;;
74963;SDS011;63521;51.900;4.748;2023-09-30T14:15:27;3.72;;;1.60;;
74963;SDS011;63521;51.900;4.748;2023-09-30T14:17:53;2.95;;;1.55;;
74963;SDS011;63521;51.900;4.748;2023-09-30T14:20:20;2.75;;;1.50;;
74963;SDS011;63521;51.900;4.748;2023-09-30T14:22:46;2.80;;;1.58;;
74963;SDS011;63521;51.900;4.748;2023-09-30T14:25:12;2.95;;;1.50;;
74963;SDS011;63521;51.900;4.748;2023-09-30T14:27:38;2.58;;;1.45;;
74963;SDS011;63521;51.900;4.748;2023-09-30T14:30:05;3.38;;;1.50;;
74963;SDS011;63521;51.900;4.748;2023-09-30T14:32:31;3.08;;;1.30;;
74963;SDS011;63521;51.900;4.748;2023-09-30T14:34:56;3.40;;;1.60;;
74963;SDS011;63521;51.900;4.748;2023-09-30T14:37:22;3.20;;;1.60;;
74963;SDS011;63521;51.900;4.748;2023-09-30T14:39:48;3.53;;;1.60;;
74963;SDS011;63521;51.900;4.748;2023-09-30T14:42:14;2.97;;;1.38;;
74963;SDS011;63521;51.900;4.748;2023-09-30T14:44:39;3.53;;;1.33;;
74963;SDS011;63521;51.900;4.748;2023-09-30T14:47:04;4.60;;;1.60;;
74963;SDS011;63521;51.900;4.748;2023-09-30T14:49:30;3.83;;;1.30;;
74963;SDS011;63521;51.900;4.748;2023-09-30T14:51:56;3.38;;;1.33;;
74963;SDS011;63521;51.900;4.748;2023-09-30T14:54:22;6.95;;;1.60;;
74963;SDS011;63521;51.900;4.748;2023-09-30T14:56:48;2.83;;;1.38;;
74963;SDS011;63521;51.900;4.748;2023-09-30T14:59:13;3.25;;;1.40;;
74963;SDS011;63521;51.900;4.748;2023-09-30T15:01:39;4.50;;;1.48;;
74963;SDS011;63521;51.900;4.748;2023-09-30T15:04:04;3.90;;;1.42;;
74963;SDS011;63521;51.900;4.748;2023-09-30T15:06:32;4.18;;;1.40;;
74963;SDS011;63521;51.900;4.748;2023-09-30T15:08:59;3.08;;;1.50;;
74963;SDS011;63521;51.900;4.748;2023-09-30T15:11:25;3.25;;;1.63;;
74963;SDS011;63521;51.900;4.748;2023-09-30T15:13:51;2.75;;;1.50;;
74963;SDS011;63521;51.900;4.748;2023-09-30T15:16:17;3.13;;;1.50;;